sensor_id;sensor_type;location;lat;lon;timestamp;P1;durP1;ratioP1;P2;durP2;ratioP2
17151;SDS011;8691;50.828;4.700;2022-11-20T00:00:00;28.60;;;25.57;;
17151;SDS011;8691;50.828;4.700;2022-11-20T00:02:27;28.67;;;25.73;;
17151;SDS011;8691;50.828;4.700;2022-11-20T00:04:54;28.50;;;25.60;;
17151;SDS011;8691;50.828;4.700;2022-11-20T00:07:21;23.67;;;20.33;;
17151;SDS011;8691;50.828;4.700;2022-11-20T00:09:48;26.98;;;24.17;;
17151;SDS011;8691;50.828;4.700;2022-11-20T00:12:14;22.87;;;19.60;;
17151;SDS011;8691;50.828;4.700;2022-11-20T00:14:41;27.67;;;24.67;;
17151;SDS011;8691;50.828;4.700;2022-11-20T00:17:09;29.83;;;26.23;;
17151;SDS011;8691;50.828;4.700;2022-11-20T00:19:36;28.98;;;25.88;;
17151;SDS011;8691;50.828;4.700;2022-11-20T00:22:03;27.98;;;25.15;;
17151;SDS011;8691;50.828;4.700;2022-11-20T00:24:30;28.55;;;25.55;;
17151;SDS011;8691;50.828;4.700;2022-11-20T00:26:58;29.77;;;26.60;;
17151;SDS011;8691;50.828;4.700;2022-11-20T00:29:25;29.37;;;26.27;;
17151;SDS011;8691;50.828;4.700;2022-11-20T00:31:52;29.07;;;25.97;;
17151;SDS011;8691;50.828;4.700;2022-11-20T00:34:19;24.10;;;19.77;;
17151;SDS011;8691;50.828;4.700;2022-11-20T00:36:46;20.63;;;18.20;;
17151;SDS011;8691;50.828;4.700;2022-11-20T00:39:14;27.75;;;24.77;;
17151;SDS011;8691;50.828;4.700;2022-11-20T00:41:41;28.55;;;25.55;;
17151;SDS011;8691;50.828;4.700;2022-11-20T00:44:08;29.13;;;26.13;;
17151;SDS011;8691;50.828;4.700;2022-11-20T00:46:35;28.97;;;25.97;;
17151;SDS011;8691;50.828;4.700;2022-11-20T00:49:02;30.50;;;27.20;;
17151;SDS011;8691;50.828;4.700;2022-11-20T00:51:28;29.33;;;26.23;;
17151;SDS011;8691;50.828;4.700;2022-11-20T00:53:56;25.27;;;20.27;;
17151;SDS011;8691;50.828;4.700;2022-11-20T00:56:22;29.90;;;26.70;;
17151;SDS011;8691;50.828;4.700;2022-11-20T00:58:49;26.33;;;20.40;;
17151;SDS011;8691;50.828;4.700;2022-11-20T01:01:19;30.53;;;27.10;;
17151;SDS011;8691;50.828;4.700;2022-11-20T01:03:43;30.37;;;27.10;;
17151;SDS011;8691;50.828;4.700;2022-11-20T01:06:10;30.50;;;27.23;;
17151;SDS011;8691;50.828;4.700;2022-11-20T01:08:36;31.73;;;27.77;;
17151;SDS011;8691;50.828;4.700;2022-11-20T01:11:05;29.53;;;26.43;;
17151;SDS011;8691;50.828;4.700;2022-11-20T01:13:30;30.80;;;27.23;;
17151;SDS011;8691;50.828;4.700;2022-11-20T01:16:10;31.10;;;27.70;;
17151;SDS011;8691;50.828;4.700;2022-11-20T01:18:38;30.93;;;27.73;;
17151;SDS011;8691;50.828;4.700;2022-11-20T01:21:05;30.57;;;27.23;;
17151;SDS011;8691;50.828;4.700;2022-11-20T01:23:35;30.73;;;27.33;;
17151;SDS011;8691;50.828;4.700;2022-11-20T01:25:59;33.33;;;28.60;;
17151;SDS011;8691;50.828;4.700;2022-11-20T01:28:26;32.62;;;28.62;;
17151;SDS011;8691;50.828;4.700;2022-11-20T01:30:54;37.72;;;30.33;;
17151;SDS011;8691;50.828;4.700;2022-11-20T01:33:21;41.38;;;32.72;;
17151;SDS011;8691;50.828;4.700;2022-11-20T01:35:48;43.30;;;31.07;;
17151;SDS011;8691;50.828;4.700;2022-11-20T01:38:16;42.30;;;31.58;;
17151;SDS011;8691;50.828;4.700;2022-11-20T01:40:43;43.33;;;32.83;;
17151;SDS011;8691;50.828;4.700;2022-11-20T01:43:19;42.95;;;33.40;;
17151;SDS011;8691;50.828;4.700;2022-11-20T01:48:43;40.37;;;23.23;;
17151;SDS011;8691;50.828;4.700;2022-11-20T01:51:12;40.73;;;32.10;;
17151;SDS011;8691;50.828;4.700;2022-11-20T01:53:44;41.27;;;32.53;;
17151;SDS011;8691;50.828;4.700;2022-11-20T01:56:11;39.80;;;32.33;;
17151;SDS011;8691;50.828;4.700;2022-11-20T01:58:38;39.57;;;31.67;;
17151;SDS011;8691;50.828;4.700;2022-11-20T02:01:04;41.40;;;32.43;;
17151;SDS011;8691;50.828;4.700;2022-11-20T02:03:31;38.60;;;32.00;;
17151;SDS011;8691;50.828;4.700;2022-11-20T02:06:14;36.80;;;31.77;;
17151;SDS011;8691;50.828;4.700;2022-11-20T02:08:46;38.80;;;31.37;;
17151;SDS011;8691;50.828;4.700;2022-11-20T02:11:13;36.90;;;31.63;;
17151;SDS011;8691;50.828;4.700;2022-11-20T02:13:40;37.97;;;31.87;;
17151;SDS011;8691;50.828;4.700;2022-11-20T02:18:55;36.03;;;31.58;;
17151;SDS011;8691;50.828;4.700;2022-11-20T02:21:24;31.27;;;23.80;;
17151;SDS011;8691;50.828;4.700;2022-11-20T02:26:21;34.75;;;30.75;;
17151;SDS011;8691;50.828;4.700;2022-11-20T02:28:48;36.15;;;31.85;;
17151;SDS011;8691;50.828;4.700;2022-11-20T02:31:15;35.12;;;31.25;;
17151;SDS011;8691;50.828;4.700;2022-11-20T02:33:42;35.75;;;31.20;;
17151;SDS011;8691;50.828;4.700;2022-11-20T02:36:09;29.43;;;22.67;;
17151;SDS011;8691;50.828;4.700;2022-11-20T02:38:36;34.62;;;30.83;;
17151;SDS011;8691;50.828;4.700;2022-11-20T02:41:03;37.13;;;31.63;;
17151;SDS011;8691;50.828;4.700;2022-11-20T02:43:30;33.70;;;23.70;;
17151;SDS011;8691;50.828;4.700;2022-11-20T02:45:57;29.43;;;22.20;;
17151;SDS011;8691;50.828;4.700;2022-11-20T02:48:24;30.33;;;22.80;;
17151;SDS011;8691;50.828;4.700;2022-11-20T02:50:51;36.35;;;30.83;;
17151;SDS011;8691;50.828;4.700;2022-11-20T02:53:18;39.53;;;33.07;;
17151;SDS011;8691;50.828;4.700;2022-11-20T02:55:45;40.13;;;33.03;;
17151;SDS011;8691;50.828;4.700;2022-11-20T02:58:11;34.63;;;26.00;;
17151;SDS011;8691;50.828;4.700;2022-11-20T03:00:38;40.97;;;33.22;;
17151;SDS011;8691;50.828;4.700;2022-11-20T03:03:05;43.20;;;32.90;;
17151;SDS011;8691;50.828;4.700;2022-11-20T03:05:32;43.85;;;34.88;;
17151;SDS011;8691;50.828;4.700;2022-11-20T03:07:59;38.87;;;26.60;;
17151;SDS011;8691;50.828;4.700;2022-11-20T03:10:26;47.50;;;34.40;;
17151;SDS011;8691;50.828;4.700;2022-11-20T03:12:56;46.10;;;34.63;;
17151;SDS011;8691;50.828;4.700;2022-11-20T03:15:19;46.00;;;35.30;;
17151;SDS011;8691;50.828;4.700;2022-11-20T03:17:46;41.40;;;26.50;;
17151;SDS011;8691;50.828;4.700;2022-11-20T03:20:13;49.78;;;35.22;;
17151;SDS011;8691;50.828;4.700;2022-11-20T03:22:40;53.12;;;36.40;;
17151;SDS011;8691;50.828;4.700;2022-11-20T03:25:06;44.70;;;27.60;;
17151;SDS011;8691;50.828;4.700;2022-11-20T03:27:34;50.23;;;34.50;;
17151;SDS011;8691;50.828;4.700;2022-11-20T03:30:00;38.17;;;25.00;;
17151;SDS011;8691;50.828;4.700;2022-11-20T03:32:27;47.20;;;34.83;;
17151;SDS011;8691;50.828;4.700;2022-11-20T03:34:54;41.77;;;26.60;;
17151;SDS011;8691;50.828;4.700;2022-11-20T03:37:21;47.33;;;34.20;;
17151;SDS011;8691;50.828;4.700;2022-11-20T03:39:48;51.90;;;36.70;;
17151;SDS011;8691;50.828;4.700;2022-11-20T03:42:15;44.67;;;28.10;;
17151;SDS011;8691;50.828;4.700;2022-11-20T03:44:59;38.57;;;25.20;;
17151;SDS011;8691;50.828;4.700;2022-11-20T03:47:26;49.70;;;35.33;;
17151;SDS011;8691;50.828;4.700;2022-11-20T03:49:53;49.60;;;35.97;;
17151;SDS011;8691;50.828;4.700;2022-11-20T03:52:20;47.97;;;35.23;;
17151;SDS011;8691;50.828;4.700;2022-11-20T03:54:47;49.10;;;36.40;;
17151;SDS011;8691;50.828;4.700;2022-11-20T03:57:14;48.62;;;35.00;;
17151;SDS011;8691;50.828;4.700;2022-11-20T03:59:41;47.13;;;33.70;;
17151;SDS011;8691;50.828;4.700;2022-11-20T04:02:08;43.40;;;32.57;;
17151;SDS011;8691;50.828;4.700;2022-11-20T04:04:35;44.72;;;32.65;;
17151;SDS011;8691;50.828;4.700;2022-11-20T04:07:01;35.40;;;24.47;;
17151;SDS011;8691;50.828;4.700;2022-11-20T04:09:28;40.62;;;30.80;;
17151;SDS011;8691;50.828;4.700;2022-11-20T04:11:55;34.57;;;23.67;;
17151;SDS011;8691;50.828;4.700;2022-11-20T04:14:22;41.65;;;30.85;;
17151;SDS011;8691;50.828;4.700;2022-11-20T04:16:49;38.83;;;30.50;;
17151;SDS011;8691;50.828;4.700;2022-11-20T04:19:16;41.00;;;29.83;;
17151;SDS011;8691;50.828;4.700;2022-11-20T04:21:43;39.30;;;29.83;;
17151;SDS011;8691;50.828;4.700;2022-11-20T04:24:09;36.93;;;28.23;;
17151;SDS011;8691;50.828;4.700;2022-11-20T04:26:37;36.50;;;27.90;;
17151;SDS011;8691;50.828;4.700;2022-11-20T04:29:04;35.75;;;27.25;;
17151;SDS011;8691;50.828;4.700;2022-11-20T04:31:34;34.62;;;26.90;;
17151;SDS011;8691;50.828;4.700;2022-11-20T04:34:01;34.80;;;26.80;;
17151;SDS011;8691;50.828;4.700;2022-11-20T04:36:28;34.92;;;26.08;;
17151;SDS011;8691;50.828;4.700;2022-11-20T04:38:55;31.05;;;24.85;;
17151;SDS011;8691;50.828;4.700;2022-11-20T04:41:21;27.43;;;19.60;;
17151;SDS011;8691;50.828;4.700;2022-11-20T04:43:52;30.45;;;23.80;;
17151;SDS011;8691;50.828;4.700;2022-11-20T04:46:15;26.80;;;18.27;;
17151;SDS011;8691;50.828;4.700;2022-11-20T04:48:41;32.47;;;24.45;;
17151;SDS011;8691;50.828;4.700;2022-11-20T04:51:09;25.77;;;17.20;;
17151;SDS011;8691;50.828;4.700;2022-11-20T04:53:36;30.55;;;23.33;;
17151;SDS011;8691;50.828;4.700;2022-11-20T04:56:08;32.92;;;24.12;;
17151;SDS011;8691;50.828;4.700;2022-11-20T04:58:31;30.85;;;24.92;;
17151;SDS011;8691;50.828;4.700;2022-11-20T05:01:01;35.03;;;26.10;;
17151;SDS011;8691;50.828;4.700;2022-11-20T05:03:30;28.93;;;19.70;;
17151;SDS011;8691;50.828;4.700;2022-11-20T05:05:59;33.30;;;25.67;;
17151;SDS011;8691;50.828;4.700;2022-11-20T05:08:27;36.95;;;26.73;;
17151;SDS011;8691;50.828;4.700;2022-11-20T05:10:53;28.30;;;20.33;;
17151;SDS011;8691;50.828;4.700;2022-11-20T05:13:20;34.38;;;25.52;;
17151;SDS011;8691;50.828;4.700;2022-11-20T05:15:47;35.17;;;26.73;;
17151;SDS011;8691;50.828;4.700;2022-11-20T05:18:14;36.03;;;28.83;;
17151;SDS011;8691;50.828;4.700;2022-11-20T05:20:40;36.07;;;27.60;;
17151;SDS011;8691;50.828;4.700;2022-11-20T05:23:07;33.97;;;26.73;;
17151;SDS011;8691;50.828;4.700;2022-11-20T05:25:34;33.57;;;26.20;;
17151;SDS011;8691;50.828;4.700;2022-11-20T05:28:01;33.67;;;26.20;;
17151;SDS011;8691;50.828;4.700;2022-11-20T05:30:28;28.03;;;18.90;;
17151;SDS011;8691;50.828;4.700;2022-11-20T05:32:54;33.92;;;24.98;;
17151;SDS011;8691;50.828;4.700;2022-11-20T05:35:21;27.43;;;19.13;;
17151;SDS011;8691;50.828;4.700;2022-11-20T05:37:48;33.57;;;25.23;;
17151;SDS011;8691;50.828;4.700;2022-11-20T05:40:15;28.57;;;19.53;;
17151;SDS011;8691;50.828;4.700;2022-11-20T05:42:42;30.70;;;24.60;;
17151;SDS011;8691;50.828;4.700;2022-11-20T05:45:09;31.45;;;24.75;;
17151;SDS011;8691;50.828;4.700;2022-11-20T05:47:36;34.42;;;25.83;;
17151;SDS011;8691;50.828;4.700;2022-11-20T05:50:03;29.23;;;20.87;;
17151;SDS011;8691;50.828;4.700;2022-11-20T05:52:30;30.90;;;24.25;;
17151;SDS011;8691;50.828;4.700;2022-11-20T05:54:56;34.00;;;26.27;;
17151;SDS011;8691;50.828;4.700;2022-11-20T05:57:23;35.50;;;26.93;;
17151;SDS011;8691;50.828;4.700;2022-11-20T05:59:50;29.83;;;20.37;;
17151;SDS011;8691;50.828;4.700;2022-11-20T06:02:17;34.22;;;25.38;;
17151;SDS011;8691;50.828;4.700;2022-11-20T06:04:44;34.40;;;26.00;;
17151;SDS011;8691;50.828;4.700;2022-11-20T06:07:11;38.03;;;27.30;;
17151;SDS011;8691;50.828;4.700;2022-11-20T06:09:39;38.50;;;27.48;;
17151;SDS011;8691;50.828;4.700;2022-11-20T06:12:05;37.08;;;27.40;;
17151;SDS011;8691;50.828;4.700;2022-11-20T06:14:32;38.12;;;28.23;;
17151;SDS011;8691;50.828;4.700;2022-11-20T06:16:59;35.20;;;21.53;;
17151;SDS011;8691;50.828;4.700;2022-11-20T06:19:26;38.17;;;26.83;;
17151;SDS011;8691;50.828;4.700;2022-11-20T06:21:53;38.38;;;27.08;;
17151;SDS011;8691;50.828;4.700;2022-11-20T06:24:20;34.70;;;21.40;;
17151;SDS011;8691;50.828;4.700;2022-11-20T06:26:47;44.70;;;28.30;;
17151;SDS011;8691;50.828;4.700;2022-11-20T06:29:13;45.87;;;29.37;;
17151;SDS011;8691;50.828;4.700;2022-11-20T06:31:40;38.77;;;22.10;;
17151;SDS011;8691;50.828;4.700;2022-11-20T06:34:07;49.30;;;29.75;;
17151;SDS011;8691;50.828;4.700;2022-11-20T06:36:34;47.77;;;29.90;;
17151;SDS011;8691;50.828;4.700;2022-11-20T06:39:00;43.27;;;23.70;;
17151;SDS011;8691;50.828;4.700;2022-11-20T06:41:27;51.03;;;30.65;;
17151;SDS011;8691;50.828;4.700;2022-11-20T06:43:55;46.47;;;24.70;;
17151;SDS011;8691;50.828;4.700;2022-11-20T06:46:22;52.65;;;30.12;;
17151;SDS011;8691;50.828;4.700;2022-11-20T06:48:49;50.60;;;30.70;;
17151;SDS011;8691;50.828;4.700;2022-11-20T06:51:16;53.67;;;30.92;;
17151;SDS011;8691;50.828;4.700;2022-11-20T06:53:42;55.35;;;31.58;;
17151;SDS011;8691;50.828;4.700;2022-11-20T06:56:10;42.90;;;23.17;;
17151;SDS011;8691;50.828;4.700;2022-11-20T06:58:36;39.30;;;21.90;;
17151;SDS011;8691;50.828;4.700;2022-11-20T07:01:05;43.60;;;21.50;;
17151;SDS011;8691;50.828;4.700;2022-11-20T07:03:32;53.33;;;29.93;;
17151;SDS011;8691;50.828;4.700;2022-11-20T07:05:59;45.50;;;23.07;;
17151;SDS011;8691;50.828;4.700;2022-11-20T07:08:25;44.97;;;22.30;;
17151;SDS011;8691;50.828;4.700;2022-11-20T07:10:52;45.83;;;22.73;;
17151;SDS011;8691;50.828;4.700;2022-11-20T07:13:19;58.78;;;30.98;;
17151;SDS011;8691;50.828;4.700;2022-11-20T07:15:45;48.13;;;25.53;;
17151;SDS011;8691;50.828;4.700;2022-11-20T07:18:12;62.03;;;33.03;;
17151;SDS011;8691;50.828;4.700;2022-11-20T07:20:39;62.43;;;33.27;;
17151;SDS011;8691;50.828;4.700;2022-11-20T07:23:06;63.53;;;33.83;;
17151;SDS011;8691;50.828;4.700;2022-11-20T07:25:34;63.07;;;33.40;;
17151;SDS011;8691;50.828;4.700;2022-11-20T07:28:01;57.97;;;32.97;;
17151;SDS011;8691;50.828;4.700;2022-11-20T07:30:28;59.10;;;32.90;;
17151;SDS011;8691;50.828;4.700;2022-11-20T07:32:55;59.03;;;32.07;;
17151;SDS011;8691;50.828;4.700;2022-11-20T07:35:22;57.73;;;33.27;;
17151;SDS011;8691;50.828;4.700;2022-11-20T07:37:48;54.53;;;27.03;;
17151;SDS011;8691;50.828;4.700;2022-11-20T07:40:15;62.10;;;33.15;;
17151;SDS011;8691;50.828;4.700;2022-11-20T07:42:51;48.83;;;24.77;;
17151;SDS011;8691;50.828;4.700;2022-11-20T07:45:18;58.10;;;32.62;;
17151;SDS011;8691;50.828;4.700;2022-11-20T07:47:44;59.60;;;32.90;;
17151;SDS011;8691;50.828;4.700;2022-11-20T07:50:11;47.67;;;24.93;;
17151;SDS011;8691;50.828;4.700;2022-11-20T07:52:38;53.73;;;31.83;;
17151;SDS011;8691;50.828;4.700;2022-11-20T07:55:05;55.10;;;32.73;;
17151;SDS011;8691;50.828;4.700;2022-11-20T07:57:32;48.70;;;25.53;;
17151;SDS011;8691;50.828;4.700;2022-11-20T07:59:59;58.85;;;33.17;;
17151;SDS011;8691;50.828;4.700;2022-11-20T08:02:25;45.33;;;23.97;;
17151;SDS011;8691;50.828;4.700;2022-11-20T08:04:52;52.08;;;31.45;;
17151;SDS011;8691;50.828;4.700;2022-11-20T08:07:19;53.77;;;32.73;;
17151;SDS011;8691;50.828;4.700;2022-11-20T08:09:46;55.23;;;32.33;;
17151;SDS011;8691;50.828;4.700;2022-11-20T08:12:19;52.90;;;31.57;;
17151;SDS011;8691;50.828;4.700;2022-11-20T08:15:04;47.93;;;26.33;;
17151;SDS011;8691;50.828;4.700;2022-11-20T08:17:30;40.53;;;22.63;;
17151;SDS011;8691;50.828;4.700;2022-11-20T08:19:57;43.80;;;22.83;;
17151;SDS011;8691;50.828;4.700;2022-11-20T08:22:24;53.83;;;31.30;;
17151;SDS011;8691;50.828;4.700;2022-11-20T08:24:51;57.03;;;32.40;;
17151;SDS011;8691;50.828;4.700;2022-11-20T08:27:19;57.25;;;32.45;;
17151;SDS011;8691;50.828;4.700;2022-11-20T08:29:47;56.22;;;33.03;;
17151;SDS011;8691;50.828;4.700;2022-11-20T08:32:14;53.33;;;31.62;;
17151;SDS011;8691;50.828;4.700;2022-11-20T08:34:41;55.92;;;32.97;;
17151;SDS011;8691;50.828;4.700;2022-11-20T08:37:08;52.20;;;31.98;;
17151;SDS011;8691;50.828;4.700;2022-11-20T08:39:34;55.40;;;32.60;;
17151;SDS011;8691;50.828;4.700;2022-11-20T08:42:01;57.10;;;33.53;;
17151;SDS011;8691;50.828;4.700;2022-11-20T08:44:28;56.00;;;32.53;;
17151;SDS011;8691;50.828;4.700;2022-11-20T08:46:55;49.77;;;25.63;;
17151;SDS011;8691;50.828;4.700;2022-11-20T08:49:22;57.70;;;32.62;;
17151;SDS011;8691;50.828;4.700;2022-11-20T08:51:49;59.00;;;31.73;;
17151;SDS011;8691;50.828;4.700;2022-11-20T08:54:15;57.15;;;32.45;;
17151;SDS011;8691;50.828;4.700;2022-11-20T08:56:42;51.20;;;24.20;;
17151;SDS011;8691;50.828;4.700;2022-11-20T08:59:09;60.97;;;32.65;;
17151;SDS011;8691;50.828;4.700;2022-11-20T09:01:36;44.43;;;24.43;;
17151;SDS011;8691;50.828;4.700;2022-11-20T09:04:04;56.15;;;30.65;;
17151;SDS011;8691;50.828;4.700;2022-11-20T09:06:31;56.88;;;32.60;;
17151;SDS011;8691;50.828;4.700;2022-11-20T09:08:58;52.95;;;31.60;;
17151;SDS011;8691;50.828;4.700;2022-11-20T09:11:25;58.05;;;31.90;;
17151;SDS011;8691;50.828;4.700;2022-11-20T09:13:51;48.47;;;23.57;;
17151;SDS011;8691;50.828;4.700;2022-11-20T09:16:18;54.20;;;30.38;;
17151;SDS011;8691;50.828;4.700;2022-11-20T09:18:45;54.62;;;31.05;;
17151;SDS011;8691;50.828;4.700;2022-11-20T09:21:12;56.55;;;31.52;;
17151;SDS011;8691;50.828;4.700;2022-11-20T09:23:39;52.90;;;30.80;;
17151;SDS011;8691;50.828;4.700;2022-11-20T09:26:15;56.78;;;33.22;;
17151;SDS011;8691;50.828;4.700;2022-11-20T09:28:33;53.10;;;30.80;;
17151;SDS011;8691;50.828;4.700;2022-11-20T09:31:00;56.78;;;31.27;;
17151;SDS011;8691;50.828;4.700;2022-11-20T09:33:27;53.73;;;30.90;;
17151;SDS011;8691;50.828;4.700;2022-11-20T09:35:54;46.97;;;28.77;;
17151;SDS011;8691;50.828;4.700;2022-11-20T09:38:21;43.25;;;27.55;;
17151;SDS011;8691;50.828;4.700;2022-11-20T09:40:56;40.97;;;26.42;;
17151;SDS011;8691;50.828;4.700;2022-11-20T09:43:32;41.07;;;26.67;;
17151;SDS011;8691;50.828;4.700;2022-11-20T09:51:12;40.00;;;24.95;;
17151;SDS011;8691;50.828;4.700;2022-11-20T09:56:26;33.07;;;19.63;;
17151;SDS011;8691;50.828;4.700;2022-11-20T09:58:54;35.53;;;23.40;;
17151;SDS011;8691;50.828;4.700;2022-11-20T10:01:23;36.67;;;23.98;;
17151;SDS011;8691;50.828;4.700;2022-11-20T10:03:51;32.97;;;22.87;;
17151;SDS011;8691;50.828;4.700;2022-11-20T10:06:21;31.60;;;22.03;;
17151;SDS011;8691;50.828;4.700;2022-11-20T10:08:49;33.75;;;22.65;;
17151;SDS011;8691;50.828;4.700;2022-11-20T10:11:21;30.65;;;20.88;;
17151;SDS011;8691;50.828;4.700;2022-11-20T10:30:06;24.13;;;14.20;;
17151;SDS011;8691;50.828;4.700;2022-11-20T10:32:32;23.77;;;16.98;;
17151;SDS011;8691;50.828;4.700;2022-11-20T10:37:29;21.73;;;15.23;;
17151;SDS011;8691;50.828;4.700;2022-11-20T10:44:53;19.10;;;13.90;;
17151;SDS011;8691;50.828;4.700;2022-11-20T10:47:30;20.10;;;13.48;;
17151;SDS011;8691;50.828;4.700;2022-11-20T10:49:55;18.67;;;12.87;;
17151;SDS011;8691;50.828;4.700;2022-11-20T10:58:21;13.57;;;8.77;;
17151;SDS011;8691;50.828;4.700;2022-11-20T11:00:50;14.93;;;10.05;;
17151;SDS011;8691;50.828;4.700;2022-11-20T11:03:24;13.62;;;9.30;;
17151;SDS011;8691;50.828;4.700;2022-11-20T11:08:16;12.57;;;7.68;;
17151;SDS011;8691;50.828;4.700;2022-11-20T11:10:47;9.30;;;6.90;;
17151;SDS011;8691;50.828;4.700;2022-11-20T11:15:48;7.65;;;6.10;;
17151;SDS011;8691;50.828;4.700;2022-11-20T11:18:31;10.55;;;6.07;;
17151;SDS011;8691;50.828;4.700;2022-11-20T11:20:57;7.73;;;5.80;;
17151;SDS011;8691;50.828;4.700;2022-11-20T11:23:37;8.60;;;5.43;;
17151;SDS011;8691;50.828;4.700;2022-11-20T11:26:07;4.97;;;4.47;;
17151;SDS011;8691;50.828;4.700;2022-11-20T11:28:33;8.03;;;5.30;;
17151;SDS011;8691;50.828;4.700;2022-11-20T11:31:01;6.37;;;4.20;;
17151;SDS011;8691;50.828;4.700;2022-11-20T11:33:29;8.10;;;4.23;;
17151;SDS011;8691;50.828;4.700;2022-11-20T11:35:59;7.50;;;4.80;;
17151;SDS011;8691;50.828;4.700;2022-11-20T11:38:32;6.13;;;4.10;;
17151;SDS011;8691;50.828;4.700;2022-11-20T11:40:57;6.50;;;4.07;;
17151;SDS011;8691;50.828;4.700;2022-11-20T11:43:25;6.67;;;4.00;;
17151;SDS011;8691;50.828;4.700;2022-11-20T11:46:23;4.67;;;3.10;;
17151;SDS011;8691;50.828;4.700;2022-11-20T11:48:59;6.43;;;3.33;;
17151;SDS011;8691;50.828;4.700;2022-11-20T11:51:30;5.90;;;3.90;;
17151;SDS011;8691;50.828;4.700;2022-11-20T11:53:54;4.90;;;3.20;;
17151;SDS011;8691;50.828;4.700;2022-11-20T11:56:21;5.93;;;3.00;;
17151;SDS011;8691;50.828;4.700;2022-11-20T11:58:50;5.63;;;3.00;;
17151;SDS011;8691;50.828;4.700;2022-11-20T12:06:44;4.95;;;2.70;;
17151;SDS011;8691;50.828;4.700;2022-11-20T12:09:10;5.50;;;2.60;;
17151;SDS011;8691;50.828;4.700;2022-11-20T12:14:29;5.75;;;2.50;;
17151;SDS011;8691;50.828;4.700;2022-11-20T12:16:54;5.43;;;2.30;;
17151;SDS011;8691;50.828;4.700;2022-11-20T12:19:20;3.50;;;2.33;;
17151;SDS011;8691;50.828;4.700;2022-11-20T12:22:05;4.70;;;2.42;;
17151;SDS011;8691;50.828;4.700;2022-11-20T12:24:35;4.53;;;1.97;;
17151;SDS011;8691;50.828;4.700;2022-11-20T12:30:09;4.90;;;2.63;;
17151;SDS011;8691;50.828;4.700;2022-11-20T12:35:49;5.28;;;2.50;;
17151;SDS011;8691;50.828;4.700;2022-11-20T12:38:35;4.93;;;2.70;;
17151;SDS011;8691;50.828;4.700;2022-11-20T12:43:51;4.65;;;2.58;;
17151;SDS011;8691;50.828;4.700;2022-11-20T12:46:41;3.30;;;2.03;;
17151;SDS011;8691;50.828;4.700;2022-11-20T12:49:09;4.65;;;2.75;;
17151;SDS011;8691;50.828;4.700;2022-11-20T12:57:40;5.23;;;2.90;;
17151;SDS011;8691;50.828;4.700;2022-11-20T13:04:54;6.37;;;3.13;;
17151;SDS011;8691;50.828;4.700;2022-11-20T13:07:22;6.47;;;2.80;;
17151;SDS011;8691;50.828;4.700;2022-11-20T13:09:49;4.97;;;2.97;;
17151;SDS011;8691;50.828;4.700;2022-11-20T13:12:17;7.15;;;2.75;;
17151;SDS011;8691;50.828;4.700;2022-11-20T13:14:47;4.12;;;2.72;;
17151;SDS011;8691;50.828;4.700;2022-11-20T13:19:55;6.22;;;3.00;;
17151;SDS011;8691;50.828;4.700;2022-11-20T13:22:27;6.10;;;3.10;;
17151;SDS011;8691;50.828;4.700;2022-11-20T13:24:54;5.90;;;3.25;;
17151;SDS011;8691;50.828;4.700;2022-11-20T13:27:22;7.10;;;3.00;;
17151;SDS011;8691;50.828;4.700;2022-11-20T13:29:59;6.30;;;2.90;;
17151;SDS011;8691;50.828;4.700;2022-11-20T13:32:25;4.77;;;2.70;;
17151;SDS011;8691;50.828;4.700;2022-11-20T13:34:55;4.72;;;2.80;;
17151;SDS011;8691;50.828;4.700;2022-11-20T13:37:35;5.25;;;3.12;;
17151;SDS011;8691;50.828;4.700;2022-11-20T13:42:44;4.85;;;2.92;;
17151;SDS011;8691;50.828;4.700;2022-11-20T13:45:21;5.80;;;2.70;;
17151;SDS011;8691;50.828;4.700;2022-11-20T13:47:37;2.87;;;2.10;;
17151;SDS011;8691;50.828;4.700;2022-11-20T13:50:04;4.25;;;3.00;;
17151;SDS011;8691;50.828;4.700;2022-11-20T13:55:11;6.00;;;2.43;;
17151;SDS011;8691;50.828;4.700;2022-11-20T14:00:30;3.70;;;2.62;;
17151;SDS011;8691;50.828;4.700;2022-11-20T14:03:12;4.10;;;2.60;;
17151;SDS011;8691;50.828;4.700;2022-11-20T14:05:37;3.53;;;2.80;;
17151;SDS011;8691;50.828;4.700;2022-11-20T14:08:04;4.93;;;2.70;;
17151;SDS011;8691;50.828;4.700;2022-11-20T14:10:30;4.57;;;2.30;;
17151;SDS011;8691;50.828;4.700;2022-11-20T14:12:57;4.80;;;2.20;;
17151;SDS011;8691;50.828;4.700;2022-11-20T14:15:31;3.88;;;2.50;;
17151;SDS011;8691;50.828;4.700;2022-11-20T14:17:57;3.12;;;2.60;;
17151;SDS011;8691;50.828;4.700;2022-11-20T14:20:27;4.93;;;2.60;;
17151;SDS011;8691;50.828;4.700;2022-11-20T14:22:54;6.10;;;2.95;;
17151;SDS011;8691;50.828;4.700;2022-11-20T14:25:24;3.55;;;2.20;;
17151;SDS011;8691;50.828;4.700;2022-11-20T14:27:52;3.60;;;2.30;;
17151;SDS011;8691;50.828;4.700;2022-11-20T14:30:25;3.08;;;2.30;;
17151;SDS011;8691;50.828;4.700;2022-11-20T14:32:51;4.20;;;2.38;;
17151;SDS011;8691;50.828;4.700;2022-11-20T14:35:20;3.70;;;1.90;;
17151;SDS011;8691;50.828;4.700;2022-11-20T14:37:44;3.90;;;2.22;;
17151;SDS011;8691;50.828;4.700;2022-11-20T14:40:21;2.30;;;2.10;;
17151;SDS011;8691;50.828;4.700;2022-11-20T14:42:47;2.50;;;2.20;;
17151;SDS011;8691;50.828;4.700;2022-11-20T14:45:14;3.53;;;2.17;;
17151;SDS011;8691;50.828;4.700;2022-11-20T14:47:41;3.03;;;2.17;;
17151;SDS011;8691;50.828;4.700;2022-11-20T14:50:12;3.17;;;1.90;;
17151;SDS011;8691;50.828;4.700;2022-11-20T14:52:50;2.37;;;1.97;;
17151;SDS011;8691;50.828;4.700;2022-11-20T14:55:36;2.27;;;1.90;;
17151;SDS011;8691;50.828;4.700;2022-11-20T14:58:00;2.20;;;2.00;;
17151;SDS011;8691;50.828;4.700;2022-11-20T15:00:25;1.80;;;1.70;;
17151;SDS011;8691;50.828;4.700;2022-11-20T15:02:52;2.67;;;1.80;;
17151;SDS011;8691;50.828;4.700;2022-11-20T15:05:20;3.63;;;2.03;;
17151;SDS011;8691;50.828;4.700;2022-11-20T15:07:47;3.67;;;2.17;;
17151;SDS011;8691;50.828;4.700;2022-11-20T15:10:23;2.20;;;2.00;;
17151;SDS011;8691;50.828;4.700;2022-11-20T15:12:54;2.70;;;1.98;;
17151;SDS011;8691;50.828;4.700;2022-11-20T15:15:24;3.25;;;1.88;;
17151;SDS011;8691;50.828;4.700;2022-11-20T15:17:48;2.60;;;2.30;;
17151;SDS011;8691;50.828;4.700;2022-11-20T15:20:15;2.75;;;2.30;;
17151;SDS011;8691;50.828;4.700;2022-11-20T15:22:42;2.70;;;2.20;;
17151;SDS011;8691;50.828;4.700;2022-11-20T15:25:12;2.93;;;1.93;;
17151;SDS011;8691;50.828;4.700;2022-11-20T15:27:38;2.90;;;2.53;;
17151;SDS011;8691;50.828;4.700;2022-11-20T15:30:11;3.13;;;2.20;;
17151;SDS011;8691;50.828;4.700;2022-11-20T15:32:32;3.88;;;2.50;;
17151;SDS011;8691;50.828;4.700;2022-11-20T15:34:58;2.73;;;2.00;;
17151;SDS011;8691;50.828;4.700;2022-11-20T15:37:25;3.67;;;2.72;;
17151;SDS011;8691;50.828;4.700;2022-11-20T15:39:52;3.62;;;2.90;;
17151;SDS011;8691;50.828;4.700;2022-11-20T15:42:19;3.97;;;2.80;;
17151;SDS011;8691;50.828;4.700;2022-11-20T15:44:46;5.22;;;3.47;;
17151;SDS011;8691;50.828;4.700;2022-11-20T15:47:13;104.78;;;67.40;;
17151;SDS011;8691;50.828;4.700;2022-11-20T15:49:40;4.20;;;3.20;;
17151;SDS011;8691;50.828;4.700;2022-11-20T15:52:08;5.13;;;2.93;;
17151;SDS011;8691;50.828;4.700;2022-11-20T15:54:34;27.08;;;16.73;;
17151;SDS011;8691;50.828;4.700;2022-11-20T15:57:01;46.33;;;27.98;;
17151;SDS011;8691;50.828;4.700;2022-11-20T15:59:28;18.43;;;11.53;;
17151;SDS011;8691;50.828;4.700;2022-11-20T16:01:56;11.90;;;8.40;;
17151;SDS011;8691;50.828;4.700;2022-11-20T16:04:23;5.93;;;4.03;;
17151;SDS011;8691;50.828;4.700;2022-11-20T16:06:49;5.83;;;3.10;;
17151;SDS011;8691;50.828;4.700;2022-11-20T16:09:16;5.55;;;3.45;;
17151;SDS011;8691;50.828;4.700;2022-11-20T16:11:43;6.22;;;4.43;;
17151;SDS011;8691;50.828;4.700;2022-11-20T16:14:10;7.07;;;4.63;;
17151;SDS011;8691;50.828;4.700;2022-11-20T16:16:55;9.97;;;4.63;;